Time;durP1;ratioP1;P1;durP2;ratioP2;P2;SDS_P1;SDS_P2;PMS_P1;PMS_P2;Temp;Humidity;BMP_temperature;BMP_pressure;BME280_temperature;BME280_humidity;BME280_pressure;Samples;Min_cycle;Max_cycle;Signal;HPM_P1;HPM_P2
2023/10/09 00:01:26;;;;;;;11.70;6.47;;;13.20;99.90;;;;;;5013080;28;20045;-76
2023/10/09 00:03:53;;;;;;;12.32;7.15;;;13.10;99.90;;;;;;5012848;28;20049;-76
2023/10/09 00:06:37;;;;;;;14.38;6.85;;;13.20;99.90;;;;;;5012841;28;20213;-77
2023/10/09 00:09:29;;;;;;;11.02;6.93;;;13.20;99.90;;;;;;4996003;28;20116;-76
2023/10/09 00:11:57;;;;;;;15.87;7.33;;;13.20;99.90;;;;;;5012732;28;20050;-76
2023/10/09 00:14:33;;;;;;;9.07;6.93;;;13.20;99.90;;;;;;4982792;28;20045;-76
2023/10/09 00:17:17;;;;;;;12.85;7.43;;;13.20;99.90;;;;;;4995934;28;20488;-77
2023/10/09 00:19:51;;;;;;;13.32;8.13;;;13.20;99.90;;;;;;5000884;28;20060;-75
2023/10/09 00:22:28;;;;;;;16.08;8.43;;;13.20;99.90;;;;;;4995855;28;20046;-75
2023/10/09 00:25:10;;;;;;;15.35;8.05;;;13.20;99.90;;;;;;4997633;28;20501;-76
2023/10/09 00:27:42;;;;;;;14.20;8.43;;;13.20;99.90;;;;;;5012582;28;20125;-75
2023/10/09 00:30:11;;;;;;;16.00;9.25;;;13.20;99.90;;;;;;5012245;28;20045;-76
2023/10/09 00:32:45;;;;;;;19.42;9.90;;;13.20;99.90;;;;;;5012309;28;20049;-76
2023/10/09 00:35:36;;;;;;;16.85;9.57;;;13.20;99.90;;;;;;5012185;28;20042;-75
2023/10/09 00:38:06;;;;;;;19.70;10.38;;;13.20;99.90;;;;;;4998712;28;20046;-76
2023/10/09 00:40:34;;;;;;;17.77;9.93;;;13.20;99.90;;;;;;5011860;28;20113;-75
2023/10/09 00:43:06;;;;;;;16.50;9.52;;;13.20;99.90;;;;;;4995819;28;20046;-75
2023/10/09 00:45:33;;;;;;;17.45;10.07;;;13.30;99.90;;;;;;4985610;28;20041;-75
2023/10/09 00:48:02;;;;;;;18.08;9.77;;;13.20;99.90;;;;;;4995764;28;20053;-75
2023/10/09 00:50:35;;;;;;;19.13;10.98;;;13.20;99.90;;;;;;5011854;28;20042;-77
2023/10/09 00:53:11;;;;;;;19.02;11.48;;;13.30;99.90;;;;;;4993147;28;20042;-76
2023/10/09 00:58:14;;;;;;;20.95;11.68;;;13.30;99.90;;;;;;5011741;28;20132;-76
2023/10/09 01:00:46;;;;;;;17.27;11.32;;;13.20;99.90;;;;;;5011776;28;20038;-76
2023/10/09 01:05:52;;;;;;;20.85;12.32;;;13.20;99.90;;;;;;5011677;28;20045;-76
2023/10/09 01:08:28;;;;;;;18.27;12.35;;;13.20;99.90;;;;;;4995417;28;20056;-76
2023/10/09 01:10:56;;;;;;;20.92;12.95;;;13.20;99.90;;;;;;5011494;28;20412;-75
2023/10/09 01:14:35;;;;;;;24.67;13.68;;;13.20;99.90;;;;;;4992371;28;20564;-75
2023/10/09 01:16:25;;;;;;;20.83;13.40;;;13.20;99.90;;;;;;4982282;28;20178;-76
2023/10/09 01:18:56;;;;;;;22.48;14.05;;;13.20;99.90;;;;;;5011221;28;20053;-77
2023/10/09 01:21:26;;;;;;;24.88;14.73;;;13.20;99.90;;;;;;5010839;28;20037;-77
2023/10/09 01:24:03;;;;;;;22.88;14.07;;;13.20;99.90;;;;;;5011635;28;20425;-76
2023/10/09 01:26:44;;;;;;;22.65;14.63;;;13.10;99.90;;;;;;4994993;28;20030;-77
2023/10/09 01:29:18;;;;;;;25.88;15.30;;;13.10;99.90;;;;;;4994953;28;20042;-75
2023/10/09 01:32:00;;;;;;;24.30;15.70;;;13.10;99.90;;;;;;5010421;28;20046;-78
2023/10/09 01:37:11;;;;;;;26.40;15.60;;;13.10;99.90;;;;;;5011158;28;20049;-77
2023/10/09 01:39:42;;;;;;;25.17;17.13;;;13.10;99.90;;;;;;5010943;28;20077;-76
2023/10/09 01:42:09;;;;;;;23.38;16.05;;;13.10;99.90;;;;;;5010967;28;20334;-76
2023/10/09 01:44:35;;;;;;;27.65;17.52;;;13.10;99.90;;;;;;4994888;28;20129;-76
2023/10/09 01:47:07;;;;;;;28.13;17.33;;;13.10;99.90;;;;;;5011211;28;20121;-76
2023/10/09 01:49:35;;;;;;;26.75;16.90;;;13.10;99.90;;;;;;4994817;28;20037;-76
2023/10/09 01:52:08;;;;;;;30.23;18.20;;;13.10;99.90;;;;;;4994881;28;20044;-76
2023/10/09 01:54:37;;;;;;;33.35;18.10;;;13.10;99.90;;;;;;4994659;28;20041;-76
2023/10/09 01:57:13;;;;;;;28.73;17.77;;;13.10;99.90;;;;;;5010469;28;20089;-75
2023/10/09 01:59:49;;;;;;;28.92;17.92;;;13.10;99.90;;;;;;5009845;28;20076;-76
2023/10/09 02:02:31;;;;;;;32.10;19.10;;;13.10;99.90;;;;;;4996312;28;20069;-76
2023/10/09 02:05:24;;;;;;;30.27;19.02;;;13.10;99.90;;;;;;5011999;28;20065;-76
2023/10/09 02:07:51;;;;;;;30.67;19.77;;;13.10;99.90;;;;;;5011962;28;20412;-76
2023/10/09 02:13:06;;;;;;;37.92;20.70;;;13.10;99.90;;;;;;4995709;28;20054;-75
2023/10/09 02:18:27;;;;;;;36.10;21.45;;;13.10;99.90;;;;;;4995734;28;20111;-76
2023/10/09 02:21:12;;;;;;;35.72;21.98;;;13.10;99.90;;;;;;5010750;28;20053;-76
2023/10/09 02:23:46;;;;;;;35.22;21.25;;;13.10;99.90;;;;;;5010999;28;20042;-76
2023/10/09 02:26:25;;;;;;;34.45;20.77;;;13.10;99.90;;;;;;4995673;28;20508;-76
2023/10/09 02:29:05;;;;;;;34.55;21.73;;;13.10;99.90;;;;;;4979736;28;20038;-76
2023/10/09 02:31:40;;;;;;;37.22;22.00;;;13.10;99.90;;;;;;5010673;28;20042;-76
2023/10/09 02:34:10;;;;;;;37.80;21.73;;;13.10;99.90;;;;;;5005250;28;20073;-76
2023/10/09 02:36:42;;;;;;;36.80;21.95;;;13.10;99.90;;;;;;5007709;28;20038;-76
2023/10/09 02:39:28;;;;;;;38.97;22.60;;;13.10;99.90;;;;;;5010598;28;20048;-76
2023/10/09 02:42:01;;;;;;;40.10;22.63;;;13.10;99.90;;;;;;5010885;28;20077;-76
2023/10/09 02:44:32;;;;;;;40.08;24.75;;;13.10;99.90;;;;;;5012433;28;20037;-76
2023/10/09 02:46:58;;;;;;;40.20;23.25;;;13.10;99.90;;;;;;5013816;28;20046;-76
2023/10/09 02:49:26;;;;;;;40.78;24.85;;;13.10;99.90;;;;;;5014175;28;20042;-76
2023/10/09 02:51:54;;;;;;;43.78;24.60;;;13.10;99.90;;;;;;5014026;28;20045;-76
2023/10/09 02:57:21;;;;;;;42.33;25.73;;;13.20;99.90;;;;;;5013999;28;20121;-76
2023/10/09 02:59:44;;;;;;;39.33;25.58;;;13.20;99.90;;;;;;4999925;28;20042;-76
2023/10/09 03:02:10;;;;;;;41.40;24.83;;;13.20;99.90;;;;;;5014050;28;20498;-76
2023/10/09 03:04:38;;;;;;;43.15;26.88;;;13.20;99.90;;;;;;5014186;28;20470;-77
2023/10/09 03:07:05;;;;;;;45.95;27.45;;;13.20;99.90;;;;;;4997477;28;20092;-76
2023/10/09 03:09:32;;;;;;;41.47;25.40;;;13.20;99.90;;;;;;5013457;28;20070;-75
2023/10/09 03:12:03;;;;;;;46.45;27.80;;;13.20;99.90;;;;;;5013776;28;20049;-75
2023/10/09 03:14:30;;;;;;;45.20;27.17;;;13.20;99.90;;;;;;5013641;28;20034;-76
2023/10/09 03:16:57;;;;;;;43.63;28.40;;;13.20;99.90;;;;;;5013522;28;20050;-75
2023/10/09 03:19:26;;;;;;;47.75;28.83;;;13.30;99.90;;;;;;4997385;28;20073;-76
2023/10/09 03:21:52;;;;;;;47.88;28.58;;;13.30;99.90;;;;;;4997918;28;20046;-76
2023/10/09 03:24:20;;;;;;;49.13;29.95;;;13.30;99.90;;;;;;5013411;28;20459;-76
2023/10/09 03:26:45;;;;;;;48.63;28.73;;;13.30;99.90;;;;;;5013485;28;20612;-76
2023/10/09 03:29:11;;;;;;;53.78;30.80;;;13.30;99.90;;;;;;5013413;28;20042;-76
2023/10/09 03:31:38;;;;;;;49.55;30.98;;;13.30;99.90;;;;;;4980909;28;20497;-76
2023/10/09 03:34:04;;;;;;;58.40;31.33;;;13.30;99.90;;;;;;5013340;28;20034;-78
2023/10/09 03:36:31;;;;;;;53.47;31.23;;;13.30;99.90;;;;;;4964654;28;20041;-76
2023/10/09 03:38:59;;;;;;;55.38;31.70;;;13.40;99.90;;;;;;5013025;28;20121;-76
2023/10/09 03:41:26;;;;;;;55.08;33.35;;;13.30;99.90;;;;;;4996556;28;20086;-77
2023/10/09 03:43:54;;;;;;;53.40;33.33;;;13.40;99.90;;;;;;4996986;28;20042;-77
2023/10/09 03:46:22;;;;;;;59.05;34.60;;;13.40;99.90;;;;;;4996315;28;20040;-76
2023/10/09 03:48:48;;;;;;;60.35;34.33;;;13.50;99.90;;;;;;5013072;28;20038;-76
2023/10/09 03:51:23;;;;;;;59.22;35.92;;;13.50;99.90;;;;;;4996960;28;20045;-77
2023/10/09 03:53:50;;;;;;;66.53;36.67;;;13.60;99.90;;;;;;5012903;28;20056;-78
2023/10/09 03:56:17;;;;;;;63.80;36.20;;;13.60;99.90;;;;;;4995719;28;20037;-77
2023/10/09 03:58:48;;;;;;;62.83;36.35;;;13.60;99.90;;;;;;4996532;28;20489;-76
2023/10/09 04:01:38;;;;;;;61.35;36.80;;;13.70;99.90;;;;;;4995849;28;20038;-76
2023/10/09 04:04:13;;;;;;;59.88;36.55;;;13.70;99.90;;;;;;5012812;28;20041;-77
2023/10/09 04:06:39;;;;;;;60.53;37.20;;;13.70;99.90;;;;;;4982838;28;20418;-77
2023/10/09 04:09:54;;;;;;;64.70;36.75;;;13.80;99.90;;;;;;4996667;28;20416;-76
2023/10/09 04:17:36;;;;;;;66.10;37.10;;;13.90;99.90;;;;;;4990933;28;20401;-75
2023/10/09 04:23:04;;;;;;;59.95;34.80;;;14.00;99.90;;;;;;5012471;28;20876;-76
2023/10/09 04:25:40;;;;;;;59.92;35.72;;;14.00;99.90;;;;;;5012307;28;20042;-76
2023/10/09 04:28:09;;;;;;;62.58;36.00;;;14.00;99.90;;;;;;5012343;28;20050;-75
2023/10/09 04:30:46;;;;;;;59.58;35.40;;;14.00;99.90;;;;;;4980133;28;20037;-77
2023/10/09 04:36:16;;;;;;;60.03;36.17;;;14.00;99.90;;;;;;4997704;28;20413;-76
2023/10/09 04:38:52;;;;;;;57.53;36.15;;;14.00;99.90;;;;;;4998262;28;20054;-76
2023/10/09 04:41:51;;;;;;;66.95;38.03;;;14.10;99.90;;;;;;4983279;28;20473;-77
2023/10/09 04:44:24;;;;;;;65.45;37.58;;;14.10;99.90;;;;;;4998857;28;20484;-76
2023/10/09 05:02:56;;;;;;;80.45;41.20;;;14.20;99.90;;;;;;5023751;28;20046;-76
2023/10/09 05:08:28;;;;;;;78.38;41.95;;;14.20;99.90;;;;;;4994764;28;20057;-77
2023/10/09 05:16:22;;;;;;;80.80;42.70;;;14.30;99.90;;;;;;4996813;28;20077;-76
2023/10/09 05:19:28;;;;;;;83.22;41.78;;;14.30;99.90;;;;;;4998387;28;20046;-77
2023/10/09 05:21:58;;;;;;;83.90;43.33;;;14.30;99.90;;;;;;4999610;28;20492;-77
2023/10/09 05:24:26;;;;;;;82.15;43.65;;;14.30;99.90;;;;;;5011629;28;20033;-76
2023/10/09 05:26:52;;;;;;;81.13;42.83;;;14.30;99.90;;;;;;4994921;28;20054;-77
2023/10/09 05:32:04;;;;;;;77.53;41.63;;;14.30;99.90;;;;;;5011100;28;20046;-77
2023/10/09 05:34:34;;;;;;;93.32;46.15;;;14.40;99.90;;;;;;5011608;28;20519;-77
2023/10/09 05:42:42;;;;;;;76.75;42.17;;;14.40;99.90;;;;;;4996492;28;20046;-77
2023/10/09 06:08:24;;;;;;;70.85;39.47;;;14.80;99.90;;;;;;5010755;28;20045;-79
2023/10/09 06:11:05;;;;;;;74.47;39.38;;;14.80;99.90;;;;;;4978865;28;20038;-81
2023/10/09 06:13:39;;;;;;;76.93;41.42;;;14.80;99.90;;;;;;4993550;28;20050;-79
2023/10/09 06:16:31;;;;;;;68.32;36.95;;;14.90;99.90;;;;;;4994438;28;20045;-80
2023/10/09 06:19:11;;;;;;;70.80;41.08;;;14.90;99.90;;;;;;5001400;28;20645;-80
2023/10/09 06:24:23;;;;;;;71.30;37.67;;;14.90;99.90;;;;;;5014765;28;20045;-79
2023/10/09 06:29:38;;;;;;;66.28;37.45;;;14.90;99.90;;;;;;5014704;28;20046;-79
2023/10/09 06:38:21;;;;;;;66.70;36.17;;;15.00;99.90;;;;;;5014146;28;20489;-80
2023/10/09 06:43:09;;;;;;;61.15;34.70;;;15.10;99.90;;;;;;5014176;28;20046;-79
2023/10/09 06:45:45;;;;;;;54.40;32.53;;;15.10;99.90;;;;;;5014535;28;20053;-80
2023/10/09 06:58:58;;;;;;;46.88;28.63;;;15.20;99.90;;;;;;5013902;28;20140;-79
2023/10/09 07:01:39;;;;;;;51.50;28.20;;;15.20;99.90;;;;;;5013756;28;20108;-74
2023/10/09 07:06:59;;;;;;;;;;;15.30;99.90;;;;;;5014567;28;20452;-79
2023/10/09 07:09:42;;;;;;;41.90;25.45;;;15.40;99.90;;;;;;4997294;28;19939;-79
2023/10/09 07:12:25;;;;;;;39.47;23.52;;;15.40;99.90;;;;;;5013698;28;20120;-79
2023/10/09 07:20:36;;;;;;;34.95;22.02;;;15.50;99.90;;;;;;5013795;28;20042;-79
2023/10/09 07:23:14;;;;;;;36.20;21.02;;;15.50;99.90;;;;;;4990313;28;20045;-79
2023/10/09 07:25:56;;;;;;;31.88;19.98;;;15.50;99.90;;;;;;4974042;28;20073;-79
2023/10/09 07:29:01;;;;;;;33.67;21.58;;;15.50;99.90;;;;;;5014545;28;20049;-78
2023/10/09 07:31:24;;;;;;;32.53;19.70;;;15.60;99.90;;;;;;5010749;28;20050;-79
2023/10/09 07:33:57;;;;;;;30.95;19.27;;;15.60;99.90;;;;;;5013569;28;20276;-79
2023/10/09 07:36:34;;;;;;;30.95;18.75;;;15.60;99.90;;;;;;5013347;28;20070;-79
2023/10/09 07:39:13;;;;;;;27.42;17.08;;;15.70;99.90;;;;;;5013252;28;20046;-79
2023/10/09 07:41:44;;;;;;;28.15;17.88;;;15.60;99.90;;;;;;4997064;28;20034;-79
2023/10/09 07:44:33;;;;;;;28.05;17.92;;;15.70;99.90;;;;;;4996903;28;20077;-79
2023/10/09 07:47:19;;;;;;;31.05;17.33;;;15.70;99.90;;;;;;5013220;28;20042;-79
2023/10/09 07:49:53;;;;;;;27.25;16.48;;;15.70;99.90;;;;;;4996944;28;20034;-80
2023/10/09 07:52:21;;;;;;;30.63;17.40;;;15.80;99.90;;;;;;5013001;28;20084;-78
2023/10/09 07:54:52;;;;;;;26.63;16.48;;;15.70;99.90;;;;;;4980994;28;20116;-79
2023/10/09 07:57:25;;;;;;;23.17;17.02;;;15.80;99.90;;;;;;5013100;28;20509;-79
2023/10/09 08:00:00;;;;;;;29.02;15.18;;;15.70;99.90;;;;;;5013215;28;20026;-80
2023/10/09 08:02:32;;;;;;;26.17;15.43;;;15.80;99.90;;;;;;5012388;28;20121;-79
2023/10/09 08:05:06;;;;;;;25.25;15.88;;;15.80;99.90;;;;;;4997231;28;21265;-80
2023/10/09 08:07:35;;;;;;;25.40;15.50;;;15.80;99.90;;;;;;5013040;28;20401;-80
2023/10/09 08:15:20;;;;;;;27.02;14.45;;;15.80;99.90;;;;;;5012641;28;20038;-80
2023/10/09 08:17:53;;;;;;;22.95;13.52;;;15.90;99.90;;;;;;5012659;28;20038;-80
2023/10/09 08:20:36;;;;;;;28.95;15.18;;;15.90;99.90;;;;;;5012627;28;20130;-80
2023/10/09 08:23:04;;;;;;;;;;;15.90;99.90;;;;;;5012887;28;20505;-79
2023/10/09 08:25:35;;;;;;;24.70;14.85;;;15.90;99.90;;;;;;5012387;28;19967;-80
2023/10/09 08:36:04;;;;;;;25.17;14.52;;;16.00;99.90;;;;;;5012350;28;20125;-77
2023/10/09 08:38:34;;;;;;;27.05;13.98;;;16.00;99.90;;;;;;5011890;28;20089;-76
2023/10/09 08:41:19;;;;;;;33.13;15.25;;;16.00;99.90;;;;;;5011481;28;20044;-77
2023/10/09 08:43:53;;;;;;;26.50;14.68;;;16.00;99.90;;;;;;4981433;28;20675;-79
2023/10/09 08:46:26;;;;;;;25.40;13.88;;;16.00;99.90;;;;;;5011983;28;20052;-79
2023/10/09 08:48:54;;;;;;;29.88;14.38;;;16.10;99.90;;;;;;5012148;28;20053;-80
2023/10/09 08:51:20;;;;;;;30.63;13.75;;;16.10;99.90;;;;;;5011999;28;20406;-80
2023/10/09 08:53:46;;;;;;;26.63;13.52;;;16.10;99.90;;;;;;4995830;28;20121;-80
2023/10/09 08:56:23;;;;;;;24.88;13.73;;;16.10;99.90;;;;;;4979303;28;20455;-80
2023/10/09 08:58:55;;;;;;;23.63;14.70;;;16.10;99.90;;;;;;5011968;28;20038;-81
2023/10/09 09:01:22;;;;;;;26.30;14.43;;;16.10;99.90;;;;;;5011823;28;20037;-80
2023/10/09 09:03:50;;;;;;;22.13;14.05;;;16.10;99.90;;;;;;4995278;28;20042;-78
2023/10/09 09:06:19;;;;;;;27.70;15.18;;;16.10;99.90;;;;;;4993442;28;20507;-76
2023/10/09 09:08:45;;;;;;;26.40;14.80;;;16.00;99.90;;;;;;5011826;28;20152;-75
2023/10/09 09:11:30;;;;;;;29.27;14.93;;;16.00;99.90;;;;;;5011564;28;20042;-76
2023/10/09 09:14:02;;;;;;;27.00;15.07;;;16.00;99.90;;;;;;5012069;28;20077;-78
2023/10/09 09:16:33;;;;;;;31.40;15.70;;;16.00;99.90;;;;;;5012411;28;20045;-79
2023/10/09 09:19:04;;;;;;;32.97;17.38;;;16.00;99.90;;;;;;5012259;28;20058;-80
2023/10/09 09:21:41;;;;;;;41.83;19.33;;;16.00;99.90;;;;;;5011629;28;20041;-81
2023/10/09 09:25:00;;;;;;;33.30;16.85;;;16.00;99.90;;;;;;4995702;28;20125;-82
2023/10/09 09:27:31;;;;;;;35.42;17.23;;;16.00;99.90;;;;;;5015757;28;20077;-82
2023/10/09 09:29:57;;;;;;;33.65;18.58;;;16.00;99.90;;;;;;5020602;28;20536;-79
2023/10/09 09:32:35;;;;;;;42.38;20.00;;;16.00;99.90;;;;;;5001026;28;20045;-78
2023/10/09 09:35:04;;;;;;;34.78;18.90;;;16.00;99.90;;;;;;5029104;28;20133;-80
2023/10/09 09:37:38;;;;;;;38.67;19.52;;;15.90;99.90;;;;;;5013495;28;20081;-80
2023/10/09 09:40:41;;;;;;;29.83;17.52;;;16.00;99.90;;;;;;4997709;28;20045;-82
2023/10/09 09:43:04;;;;;;;;;;;16.00;99.90;;;;;;4983949;28;20097;-79
2023/10/09 09:45:35;;;;;;;32.78;18.40;;;16.00;99.90;;;;;;5011408;28;19917;-81
2023/10/09 09:48:11;;;;;;;37.15;19.42;;;16.00;99.90;;;;;;4984748;28;20065;-81
2023/10/09 09:50:43;;;;;;;42.47;21.10;;;16.10;99.90;;;;;;5010707;28;20073;-79
2023/10/09 09:53:16;;;;;;;32.92;18.30;;;16.10;99.90;;;;;;4974864;28;20516;-78
2023/10/09 09:55:59;;;;;;;36.08;19.33;;;16.10;99.90;;;;;;5003939;28;20053;-77
2023/10/09 09:58:27;;;;;;;;;;;16.10;99.90;;;;;;4984244;28;20034;-80
2023/10/09 10:00:57;;;;;;;33.05;18.15;;;16.20;99.90;;;;;;5011665;28;20510;-79
2023/10/09 10:03:29;;;;;;;36.63;18.13;;;16.20;99.90;;;;;;5011958;28;20049;-78
2023/10/09 10:05:56;;;;;;;34.10;17.63;;;16.20;99.90;;;;;;4995841;28;20046;-80
2023/10/09 10:08:31;;;;;;;29.05;17.63;;;16.20;99.90;;;;;;4979751;28;20037;-78
2023/10/09 10:10:58;;;;;;;34.53;18.92;;;16.30;99.90;;;;;;5011034;28;20049;-79
2023/10/09 10:13:58;;;;;;;29.02;16.83;;;16.30;99.90;;;;;;4978394;28;20046;-78
2023/10/09 10:16:24;;;;;;;39.65;20.13;;;16.30;99.90;;;;;;4984409;28;20081;-81
2023/10/09 10:19:21;;;;;;;33.97;17.25;;;16.30;99.90;;;;;;4978307;28;20515;-81
2023/10/09 10:21:52;;;;;;;25.23;15.75;;;16.40;99.90;;;;;;4994608;28;20046;-81
2023/10/09 10:24:51;;;;;;;33.17;18.27;;;16.40;99.90;;;;;;4994564;28;20505;-81
2023/10/09 10:27:26;;;;;;;31.35;16.92;;;16.40;99.90;;;;;;5009423;28;20046;-81
2023/10/09 10:30:10;;;;;;;30.40;16.48;;;16.50;99.90;;;;;;5010914;28;20054;-81
2023/10/09 10:32:57;;;;;;;31.48;16.75;;;16.60;99.90;;;;;;5010661;28;20048;-80
2023/10/09 10:35:32;;;;;;;32.58;17.55;;;16.60;99.90;;;;;;4978722;28;20046;-81
2023/10/09 10:40:46;;;;;;;32.13;16.38;;;16.60;99.90;;;;;;5010665;28;20042;-79
2023/10/09 10:43:47;;;;;;;35.58;16.63;;;16.70;99.90;;;;;;5010550;28;20038;-81
2023/10/09 10:46:15;;;;;;;28.95;15.95;;;16.70;99.90;;;;;;4982152;28;20449;-78
2023/10/09 10:48:46;;;;;;;33.38;16.48;;;16.70;99.90;;;;;;4994319;28;20513;-80
2023/10/09 10:51:14;;;;;;;32.30;16.63;;;16.70;99.90;;;;;;5010929;28;20038;-79
2023/10/09 10:53:52;;;;;;;37.78;18.05;;;16.70;99.90;;;;;;4994568;28;20810;-80
2023/10/09 10:56:18;;;;;;;28.75;15.98;;;16.70;99.90;;;;;;4994028;28;20536;-78
2023/10/09 11:04:42;;;;;;;27.40;13.88;;;16.70;99.90;;;;;;5011269;28;20045;-80
2023/10/09 11:12:42;;;;;;;25.58;13.60;;;16.70;99.90;;;;;;5013800;28;20050;-80
2023/10/09 11:15:29;;;;;;;29.27;13.98;;;16.70;99.90;;;;;;5013815;28;20093;-79
2023/10/09 11:18:09;;;;;;;22.48;12.48;;;16.70;99.90;;;;;;5013560;28;20089;-79
2023/10/09 11:20:38;;;;;;;24.23;12.57;;;16.60;99.90;;;;;;5001741;28;20096;-79
2023/10/09 11:25:52;;;;;;;30.00;13.10;;;16.70;99.90;;;;;;4985343;28;20042;-77
2023/10/09 11:31:11;;;;;;;24.58;13.25;;;16.60;99.90;;;;;;4999836;28;20050;-77
2023/10/09 11:33:48;;;;;;;25.73;13.95;;;16.60;99.90;;;;;;5013240;28;20045;-80
2023/10/09 11:36:31;;;;;;;27.48;13.80;;;16.60;99.90;;;;;;4997283;28;20042;-78
2023/10/09 11:39:13;;;;;;;;;;;16.60;99.90;;;;;;5013269;28;20064;-77
2023/10/09 11:41:44;;;;;;;35.23;14.80;;;16.60;99.90;;;;;;5013321;28;19917;-78
2023/10/09 11:44:33;;;;;;;24.58;12.93;;;16.60;99.90;;;;;;4996979;28;20042;-76
2023/10/09 11:54:59;;;;;;;29.38;13.57;;;16.70;99.90;;;;;;5013039;28;20054;-82
2023/10/09 11:57:31;;;;;;;34.63;13.98;;;16.60;99.90;;;;;;4980529;28;20595;-76
2023/10/09 12:00:10;;;;;;;32.90;14.15;;;16.60;99.90;;;;;;5012802;28;20127;-76
2023/10/09 12:02:43;;;;;;;24.05;12.15;;;16.60;99.90;;;;;;5013149;28;20038;-77
2023/10/09 12:05:16;;;;;;;26.58;14.18;;;16.70;99.90;;;;;;4996634;28;20059;-78
2023/10/09 12:07:45;;;;;;;23.98;13.27;;;16.70;99.90;;;;;;4996560;28;20041;-77
2023/10/09 12:10:13;;;;;;;19.95;12.75;;;16.70;99.90;;;;;;5012348;28;20124;-77
2023/10/09 12:12:39;;;;;;;29.52;12.73;;;16.80;99.90;;;;;;4996495;28;20129;-75
2023/10/09 12:15:06;;;;;;;25.08;12.05;;;16.80;99.90;;;;;;4995454;28;20050;-76
2023/10/09 12:17:32;;;;;;;26.13;13.02;;;16.80;99.90;;;;;;4979792;28;20038;-76
2023/10/09 12:19:58;;;;;;;25.83;11.43;;;16.90;99.90;;;;;;5012524;28;20052;-74
2023/10/09 12:22:27;;;;;;;27.23;11.98;;;17.00;99.90;;;;;;4996560;28;20397;-75
2023/10/09 12:24:52;;;;;;;24.50;11.90;;;17.10;99.90;;;;;;5012358;28;20124;-76
2023/10/09 12:27:20;;;;;;;23.30;11.68;;;17.10;99.90;;;;;;5012343;28;20073;-77
2023/10/09 12:29:46;;;;;;;25.80;12.10;;;17.10;99.90;;;;;;5012596;28;20093;-77
2023/10/09 12:32:12;;;;;;;22.30;11.18;;;17.10;99.90;;;;;;4979980;28;20108;-76
2023/10/09 12:34:39;;;;;;;17.38;9.32;;;17.00;99.90;;;;;;4976567;28;20482;-78
2023/10/09 12:37:06;;;;;;;19.45;10.88;;;17.00;99.90;;;;;;5012496;28;20084;-76
2023/10/09 12:39:39;;;;;;;19.85;9.88;;;17.10;99.90;;;;;;4979537;28;20041;-75
2023/10/09 12:42:08;;;;;;;21.75;10.32;;;17.00;99.90;;;;;;4996002;28;20064;-77
2023/10/09 12:44:38;;;;;;;18.38;8.95;;;17.10;99.90;;;;;;5012047;28;20129;-77
2023/10/09 12:47:11;;;;;;;19.70;9.48;;;17.00;99.90;;;;;;5011856;28;20056;-77
2023/10/09 12:49:40;;;;;;;23.70;9.10;;;17.10;99.90;;;;;;5012037;28;20053;-75
2023/10/09 12:52:15;;;;;;;15.65;8.90;;;17.30;99.90;;;;;;5011310;28;20073;-76
2023/10/09 12:54:47;;;;;;;17.10;8.60;;;17.40;99.90;;;;;;4996885;28;20056;-77
2023/10/09 12:57:16;;;;;;;17.98;8.48;;;17.50;99.90;;;;;;5011679;28;20045;-76
2023/10/09 12:59:51;;;;;;;15.48;7.68;;;17.60;99.90;;;;;;4995628;28;20046;-75
2023/10/09 13:02:28;;;;;;;14.43;7.32;;;17.70;99.90;;;;;;5012086;28;20445;-75
2023/10/09 13:04:57;;;;;;;14.85;7.03;;;17.70;99.90;;;;;;4996831;28;20177;-76
2023/10/09 13:07:23;;;;;;;14.50;6.88;;;17.70;99.90;;;;;;5012009;28;20049;-76
2023/10/09 13:12:41;;;;;;;14.60;6.50;;;17.60;99.90;;;;;;4997985;28;20420;-76
2023/10/09 13:15:11;;;;;;;16.83;6.75;;;17.60;99.90;;;;;;5011386;28;20041;-73
2023/10/09 13:17:37;;;;;;;14.02;6.70;;;17.60;99.90;;;;;;5011553;28;20045;-77
2023/10/09 13:20:12;;;;;;;16.75;8.13;;;17.60;99.90;;;;;;5011300;28;20056;-77
2023/10/09 13:22:42;;;;;;;12.35;5.78;;;17.60;99.90;;;;;;5011479;28;20053;-76
2023/10/09 13:25:15;;;;;;;13.18;6.53;;;17.60;99.90;;;;;;5011302;28;20472;-77
2023/10/09 13:27:42;;;;;;;13.52;6.22;;;17.60;99.90;;;;;;4995098;28;20492;-76
2023/10/09 13:30:09;;;;;;;21.30;6.00;;;17.60;99.90;;;;;;4994592;28;20053;-76
2023/10/09 13:32:36;;;;;;;13.18;5.72;;;17.60;99.90;;;;;;4978995;28;20038;-76
2023/10/09 13:35:06;;;;;;;12.07;5.35;;;17.30;99.90;;;;;;5010953;28;20145;-77
2023/10/09 13:37:36;;;;;;;15.77;6.30;;;17.60;99.90;;;;;;4995118;28;20046;-76
2023/10/09 13:40:09;;;;;;;11.48;6.30;;;17.60;99.90;;;;;;5011164;28;20046;-77
2023/10/09 13:42:35;;;;;;;12.50;6.18;;;17.60;99.90;;;;;;4995038;28;20038;-76
2023/10/09 13:45:15;;;;;;;14.63;5.75;;;17.60;99.90;;;;;;5011020;28;20524;-76
2023/10/09 13:47:44;;;;;;;12.38;6.47;;;17.50;99.90;;;;;;4997931;28;20113;-76
2023/10/09 13:50:10;;;;;;;12.40;6.80;;;17.50;99.90;;;;;;5010968;28;20444;-76
2023/10/09 13:52:39;;;;;;;11.68;6.78;;;17.50;99.90;;;;;;5011164;28;20045;-76
2023/10/09 13:55:15;;;;;;;11.63;6.05;;;17.60;99.90;;;;;;4994914;28;20116;-76
2023/10/09 13:57:45;;;;;;;11.18;5.80;;;17.60;99.90;;;;;;4994704;28;20050;-77
2023/10/09 14:00:17;;;;;;;13.02;6.25;;;17.60;99.90;;;;;;5011028;28;20045;-75
2023/10/09 14:02:44;;;;;;;11.13;6.35;;;17.60;99.90;;;;;;5011299;28;20045;-75
2023/10/09 14:05:10;;;;;;;13.68;6.15;;;17.70;99.90;;;;;;4994431;28;20121;-76
2023/10/09 14:07:37;;;;;;;13.55;5.65;;;17.70;99.90;;;;;;4987755;28;20116;-76
2023/10/09 14:10:17;;;;;;;12.57;5.22;;;17.70;99.90;;;;;;5010866;28;20049;-76
2023/10/09 14:12:44;;;;;;;12.15;5.28;;;17.70;99.90;;;;;;4963363;28;20050;-75
2023/10/09 14:15:16;;;;;;;10.27;5.55;;;17.70;99.90;;;;;;4993623;28;20584;-77
2023/10/09 14:17:42;;;;;;;11.82;5.50;;;17.70;99.90;;;;;;4987521;28;20049;-76
2023/10/09 14:22:53;;;;;;;15.98;5.00;;;17.60;99.90;;;;;;4990235;28;20042;-76
2023/10/09 14:25:21;;;;;;;8.55;4.40;;;17.60;99.90;;;;;;4994789;28;20077;-78
2023/10/09 14:27:48;;;;;;;8.85;4.65;;;17.60;99.90;;;;;;4978490;28;20053;-78
2023/10/09 14:30:22;;;;;;;13.00;5.03;;;17.50;99.90;;;;;;5010925;28;20081;-76
2023/10/09 14:32:55;;;;;;;11.18;5.20;;;17.50;99.90;;;;;;5010629;28;20045;-76
2023/10/09 14:35:21;;;;;;;13.48;4.70;;;17.50;99.90;;;;;;5010450;28;20493;-75
2023/10/09 14:37:47;;;;;;;8.77;4.60;;;17.40;99.90;;;;;;5010614;28;20077;-76
2023/10/09 14:40:13;;;;;;;10.98;4.75;;;17.40;99.90;;;;;;5013158;28;20077;-76
2023/10/09 14:42:45;;;;;;;11.32;4.78;;;17.40;99.90;;;;;;4997560;28;20056;-76
2023/10/09 14:45:16;;;;;;;12.73;4.97;;;17.40;99.90;;;;;;5014645;28;20117;-77
2023/10/09 14:47:47;;;;;;;10.10;4.47;;;17.40;99.90;;;;;;5014072;28;20116;-76
2023/10/09 14:50:13;;;;;;;10.57;4.77;;;17.40;99.90;;;;;;5014248;28;20041;-77
2023/10/09 14:52:40;;;;;;;8.65;4.38;;;17.40;99.90;;;;;;4997572;28;20520;-77
2023/10/09 14:55:06;;;;;;;8.77;4.50;;;17.50;99.90;;;;;;5014133;28;20073;-78
2023/10/09 14:57:35;;;;;;;10.05;4.75;;;17.50;99.90;;;;;;5013898;28;20053;-78
2023/10/09 15:00:07;;;;;;;9.23;4.07;;;17.40;99.90;;;;;;4981955;28;20100;-78
2023/10/09 15:02:33;;;;;;;12.70;3.97;;;17.40;99.90;;;;;;5014012;28;20045;-77
2023/10/09 15:04:59;;;;;;;7.15;3.80;;;17.40;99.90;;;;;;4981505;28;20037;-75
2023/10/09 15:07:25;;;;;;;8.30;4.00;;;17.40;99.90;;;;;;4997530;28;20045;-74
2023/10/09 15:09:51;;;;;;;8.00;4.20;;;17.40;99.90;;;;;;5013724;28;20030;-76
2023/10/09 15:12:16;;;;;;;12.10;4.13;;;17.30;99.90;;;;;;4997447;28;20517;-76
2023/10/09 15:14:44;;;;;;;9.48;4.18;;;17.30;99.90;;;;;;5013748;28;20045;-75
2023/10/09 15:17:10;;;;;;;8.98;4.30;;;17.30;99.90;;;;;;4996770;28;20048;-75
2023/10/09 15:19:37;;;;;;;11.52;4.88;;;17.20;99.90;;;;;;4997524;28;20045;-76
2023/10/09 15:22:08;;;;;;;12.48;5.07;;;17.20;99.90;;;;;;5013893;28;20045;-76
2023/10/09 15:24:34;;;;;;;9.18;4.95;;;17.20;99.90;;;;;;4978855;28;20522;-76
2023/10/09 15:26:59;;;;;;;13.75;5.90;;;17.10;99.90;;;;;;5011915;28;20041;-76
2023/10/09 15:29:31;;;;;;;15.25;5.72;;;17.00;99.90;;;;;;5013665;28;20491;-75
2023/10/09 15:32:04;;;;;;;9.05;5.15;;;17.00;99.90;;;;;;5013380;28;20176;-74
2023/10/09 15:34:31;;;;;;;10.68;4.97;;;16.90;99.90;;;;;;5013322;28;20511;-77
2023/10/09 15:36:57;;;;;;;11.15;5.20;;;16.90;99.90;;;;;;4996873;28;20060;-76
2023/10/09 15:39:23;;;;;;;12.02;4.90;;;16.90;99.90;;;;;;5012928;28;20489;-76
2023/10/09 15:41:50;;;;;;;10.40;4.85;;;16.80;99.90;;;;;;4996987;28;20049;-75